Time;durP1;ratioP1;P1;durP2;ratioP2;P2;SDS_P1;SDS_P2;PMS_P1;PMS_P2;Temp;Humidity;BMP_temperature;BMP_pressure;BME280_temperature;BME280_humidity;BME280_pressure;Samples;Min_cycle;Max_cycle;Signal;HPM_P1;HPM_P2
2022/03/06 00:01:09;;;;;;;13.90;10.93;;;2.30;99.90;;;;;;5093664;28;20054;-60
2022/03/06 00:03:35;;;;;;;14.77;9.98;;;2.30;99.90;;;;;;5093165;28;20042;-61
2022/03/06 00:06:01;;;;;;;14.07;10.25;;;2.30;99.90;;;;;;5093865;28;20463;-61
2022/03/06 00:08:28;;;;;;;12.38;8.95;;;2.30;99.90;;;;;;5093779;28;20042;-60
2022/03/06 00:10:54;;;;;;;15.15;10.07;;;2.30;99.90;;;;;;5094156;28;20039;-61
2022/03/06 00:13:19;;;;;;;11.13;8.65;;;2.40;99.90;;;;;;5093867;28;20096;-61
2022/03/06 00:15:45;;;;;;;11.95;9.20;;;2.40;99.90;;;;;;5093413;28;20432;-61
2022/03/06 00:18:11;;;;;;;10.82;8.52;;;2.40;99.90;;;;;;5093493;28;20043;-60
2022/03/06 00:20:36;;;;;;;14.15;9.15;;;2.50;99.90;;;;;;5093640;28;20486;-61
2022/03/06 00:23:05;;;;;;;9.98;8.13;;;2.50;99.90;;;;;;5093107;28;20047;-61
2022/03/06 00:25:31;;;;;;;14.48;8.48;;;2.50;99.90;;;;;;5092454;28;20080;-61
2022/03/06 00:27:57;;;;;;;10.82;8.02;;;2.50;99.90;;;;;;5093365;28;20040;-61
2022/03/06 00:30:22;;;;;;;10.60;7.93;;;2.60;99.90;;;;;;5093439;28;20363;-61
2022/03/06 00:32:48;;;;;;;12.60;8.77;;;2.60;99.90;;;;;;5093283;28;20038;-60
2022/03/06 00:35:14;;;;;;;14.75;8.30;;;2.60;99.90;;;;;;5093208;28;20059;-61
2022/03/06 00:37:39;;;;;;;10.07;7.40;;;2.60;99.90;;;;;;5093065;28;20040;-61
2022/03/06 00:40:06;;;;;;;9.50;7.32;;;2.60;99.90;;;;;;5093287;28;20044;-61
2022/03/06 00:42:32;;;;;;;11.77;8.25;;;2.60;99.90;;;;;;5092827;28;20475;-61
2022/03/06 00:44:58;;;;;;;11.15;7.32;;;2.50;99.90;;;;;;5093044;28;20047;-61
2022/03/06 00:47:24;;;;;;;13.07;8.02;;;2.60;99.90;;;;;;5093041;28;20113;-61
2022/03/06 00:49:49;;;;;;;9.95;7.50;;;2.60;99.90;;;;;;5092792;28;20521;-61
2022/03/06 00:52:15;;;;;;;10.75;7.53;;;2.50;99.90;;;;;;5092857;28;20039;-61
2022/03/06 00:54:41;;;;;;;10.50;7.38;;;2.50;99.90;;;;;;5092974;28;20036;-61
2022/03/06 00:57:06;;;;;;;13.02;7.70;;;2.50;99.90;;;;;;5092994;28;20474;-61
2022/03/06 00:59:35;;;;;;;10.68;7.90;;;2.40;99.90;;;;;;5093495;28;20846;-61
2022/03/06 01:02:06;;;;;;;8.98;7.07;;;2.50;99.90;;;;;;5092731;28;20046;-61
2022/03/06 01:04:32;;;;;;;11.10;7.38;;;2.50;99.90;;;;;;5072246;28;20032;-60
2022/03/06 01:06:58;;;;;;;12.73;7.47;;;2.50;99.90;;;;;;5088137;28;20029;-61
2022/03/06 01:09:24;;;;;;;11.25;7.40;;;2.50;99.90;;;;;;5071564;28;20035;-61
2022/03/06 01:11:51;;;;;;;11.18;6.80;;;2.50;99.90;;;;;;5072404;28;20043;-61
2022/03/06 01:14:17;;;;;;;10.68;6.80;;;2.50;99.90;;;;;;5072036;28;20044;-61
2022/03/06 01:16:43;;;;;;;9.70;7.10;;;2.50;99.90;;;;;;5071551;28;20486;-61
2022/03/06 01:19:08;;;;;;;9.05;7.05;;;2.50;99.90;;;;;;5072534;28;20044;-61
2022/03/06 01:21:34;;;;;;;10.15;6.88;;;2.50;99.90;;;;;;5072142;28;20071;-61
2022/03/06 01:24:00;;;;;;;16.55;8.18;;;2.50;99.90;;;;;;5072329;28;20080;-61
2022/03/06 01:26:25;;;;;;;9.80;6.65;;;2.50;99.90;;;;;;5072296;28;20036;-61
2022/03/06 01:28:51;;;;;;;12.57;7.53;;;2.50;99.90;;;;;;5072009;28;20093;-61
2022/03/06 01:31:17;;;;;;;12.20;7.43;;;2.50;99.90;;;;;;5072067;28;20387;-61
2022/03/06 01:33:42;;;;;;;12.50;7.57;;;2.50;99.90;;;;;;5071954;28;20036;-61
2022/03/06 01:36:08;;;;;;;11.43;6.97;;;2.50;99.90;;;;;;5071809;28;20113;-61
2022/03/06 01:38:33;;;;;;;8.60;5.90;;;2.50;99.90;;;;;;5072077;28;20035;-60
2022/03/06 01:40:59;;;;;;;10.15;6.03;;;2.50;99.90;;;;;;5071823;28;20115;-61
2022/03/06 01:43:25;;;;;;;12.88;6.97;;;2.50;99.90;;;;;;5071780;28;20036;-61
2022/03/06 01:45:50;;;;;;;9.88;7.05;;;2.50;99.90;;;;;;5071752;28;20076;-61
2022/03/06 01:48:16;;;;;;;13.55;7.10;;;2.60;99.90;;;;;;5071854;28;20041;-61
2022/03/06 01:50:42;;;;;;;9.15;7.05;;;2.60;99.90;;;;;;5071807;28;20045;-61
2022/03/06 01:53:09;;;;;;;7.95;6.40;;;2.60;99.90;;;;;;5070245;28;20052;-60
2022/03/06 01:55:36;;;;;;;8.98;6.78;;;2.60;99.90;;;;;;5071879;28;20044;-61
2022/03/06 01:58:04;;;;;;;9.10;6.70;;;2.60;99.90;;;;;;5071921;28;20047;-60
2022/03/06 02:00:34;;;;;;;11.53;6.67;;;2.60;99.90;;;;;;5071723;28;20048;-61
2022/03/06 02:03:00;;;;;;;8.88;6.22;;;2.50;99.90;;;;;;5071585;28;20283;-61
2022/03/06 02:05:26;;;;;;;10.07;6.22;;;2.50;99.90;;;;;;5071775;28;20486;-61
2022/03/06 02:07:51;;;;;;;9.15;6.28;;;2.50;99.90;;;;;;5071913;28;20033;-61
2022/03/06 02:10:17;;;;;;;12.27;7.10;;;2.50;99.90;;;;;;5070355;28;20123;-61
2022/03/06 02:12:44;;;;;;;9.32;6.70;;;2.40;99.90;;;;;;5071679;28;20060;-61
2022/03/06 02:15:12;;;;;;;10.93;6.30;;;2.40;99.90;;;;;;5070666;28;20048;-60
2022/03/06 02:17:38;;;;;;;10.35;6.05;;;2.50;99.90;;;;;;5070250;28;20040;-61
2022/03/06 02:20:06;;;;;;;9.35;5.68;;;2.50;99.90;;;;;;5071764;28;20042;-61
2022/03/06 02:22:35;;;;;;;12.10;5.47;;;2.40;99.90;;;;;;5071459;28;20387;-61
2022/03/06 02:25:05;;;;;;;7.38;4.93;;;2.40;99.90;;;;;;5071335;28;20482;-60
2022/03/06 02:27:30;;;;;;;8.10;5.38;;;2.40;99.90;;;;;;5074134;28;20403;-61
2022/03/06 02:29:56;;;;;;;9.13;5.15;;;2.40;99.90;;;;;;5075478;28;20044;-61
2022/03/06 02:32:22;;;;;;;7.82;4.70;;;2.40;99.90;;;;;;5075263;28;20048;-61
2022/03/06 02:34:50;;;;;;;7.85;5.03;;;2.50;99.90;;;;;;5075551;28;20041;-61
2022/03/06 02:37:19;;;;;;;6.05;4.13;;;2.40;99.90;;;;;;5075298;28;20078;-61
2022/03/06 02:39:45;;;;;;;8.55;4.43;;;2.50;99.90;;;;;;5075162;28;20028;-61
2022/03/06 02:42:23;;;;;;;8.07;4.45;;;2.50;99.90;;;;;;5075165;28;20040;-60
2022/03/06 02:44:49;;;;;;;6.97;4.30;;;2.50;99.90;;;;;;5075133;28;20471;-60
2022/03/06 02:47:14;;;;;;;9.68;4.90;;;2.50;99.90;;;;;;5075026;28;20043;-61
2022/03/06 02:49:40;;;;;;;7.20;4.13;;;2.50;99.90;;;;;;5074931;28;20079;-61
2022/03/06 02:52:08;;;;;;;6.28;4.32;;;2.50;99.90;;;;;;5074845;28;20039;-61
2022/03/06 02:54:34;;;;;;;5.78;4.07;;;2.40;99.90;;;;;;5073407;28;20142;-61
2022/03/06 02:56:59;;;;;;;7.32;4.25;;;2.40;99.90;;;;;;5074804;28;20220;-61
2022/03/06 02:59:25;;;;;;;9.05;4.63;;;2.40;99.90;;;;;;5074696;28;20029;-60
2022/03/06 03:01:51;;;;;;;6.07;4.30;;;2.40;99.90;;;;;;5074959;28;20045;-61
2022/03/06 03:04:16;;;;;;;7.68;4.55;;;2.40;99.90;;;;;;5074622;28;20036;-61
2022/03/06 03:06:42;;;;;;;7.18;4.50;;;2.40;99.90;;;;;;5074734;28;20036;-60
2022/03/06 03:09:08;;;;;;;5.90;4.47;;;2.40;99.90;;;;;;5074573;28;20380;-61
2022/03/06 03:11:35;;;;;;;6.93;4.18;;;2.30;99.90;;;;;;5074426;28;20545;-60
2022/03/06 03:14:01;;;;;;;8.88;4.80;;;2.40;99.90;;;;;;5074531;28;20041;-60
2022/03/06 03:16:27;;;;;;;5.88;4.28;;;2.40;99.90;;;;;;5074755;28;20067;-61
2022/03/06 03:18:53;;;;;;;8.02;4.57;;;2.40;99.90;;;;;;5074446;28;20137;-61
2022/03/06 03:21:19;;;;;;;7.05;4.38;;;2.40;99.90;;;;;;5074334;28;20445;-60
2022/03/06 03:23:45;;;;;;;7.40;4.63;;;2.40;99.90;;;;;;5074309;28;20057;-61
2022/03/06 03:26:11;;;;;;;10.75;5.13;;;2.40;99.90;;;;;;5074659;28;20040;-61
2022/03/06 03:28:36;;;;;;;8.70;4.75;;;2.40;99.90;;;;;;5074319;28;20048;-61
2022/03/06 03:31:02;;;;;;;8.52;4.50;;;2.40;99.90;;;;;;5074300;28;20029;-61
2022/03/06 03:33:28;;;;;;;9.52;5.40;;;2.40;99.90;;;;;;5074333;28;20475;-61
2022/03/06 03:35:53;;;;;;;9.18;4.78;;;2.50;99.90;;;;;;5074272;28;20478;-61
2022/03/06 03:38:19;;;;;;;9.20;5.22;;;2.50;99.90;;;;;;5073114;28;20437;-61
2022/03/06 03:40:45;;;;;;;8.13;4.07;;;2.40;99.90;;;;;;5074004;28;20443;-61
2022/03/06 03:43:10;;;;;;;8.10;4.75;;;2.40;99.90;;;;;;5073861;28;20036;-61
2022/03/06 03:45:37;;;;;;;8.40;4.50;;;2.40;99.90;;;;;;5074088;28;20499;-61
2022/03/06 03:48:03;;;;;;;7.00;4.80;;;2.40;99.90;;;;;;5073820;28;20045;-61
2022/03/06 03:50:29;;;;;;;7.43;4.45;;;2.30;99.90;;;;;;5073864;28;20041;-61
2022/03/06 03:52:54;;;;;;;7.57;4.20;;;2.30;99.90;;;;;;5073845;28;20395;-60
2022/03/06 03:55:20;;;;;;;8.32;4.32;;;2.30;99.90;;;;;;5073690;28;20119;-61
2022/03/06 03:57:45;;;;;;;8.57;4.50;;;2.20;99.90;;;;;;5073546;28;20040;-60
2022/03/06 04:00:11;;;;;;;8.05;4.68;;;2.10;99.90;;;;;;5073746;28;20029;-61
2022/03/06 04:02:37;;;;;;;7.85;4.32;;;2.10;99.90;;;;;;5073648;28;20530;-60
2022/03/06 04:05:04;;;;;;;8.35;4.65;;;2.00;99.90;;;;;;5072182;28;20048;-61
2022/03/06 04:07:29;;;;;;;12.38;5.15;;;2.10;99.90;;;;;;5073698;28;20040;-61
2022/03/06 04:09:55;;;;;;;8.40;5.07;;;2.00;99.90;;;;;;5073739;28;20037;-61
2022/03/06 04:12:20;;;;;;;12.90;5.75;;;2.00;99.90;;;;;;5073299;28;20440;-60
2022/03/06 04:14:46;;;;;;;7.93;4.25;;;1.90;99.90;;;;;;5073431;28;20141;-61
2022/03/06 04:17:12;;;;;;;9.13;4.97;;;1.90;99.90;;;;;;5073483;28;20119;-60
2022/03/06 04:19:37;;;;;;;11.15;5.28;;;1.90;99.90;;;;;;5073257;28;20120;-60
2022/03/06 04:22:03;;;;;;;8.18;5.28;;;1.90;99.90;;;;;;5071914;28;20102;-61
2022/03/06 04:24:29;;;;;;;7.38;4.55;;;1.80;99.90;;;;;;5073013;28;20114;-61
2022/03/06 04:26:55;;;;;;;10.65;4.90;;;1.80;99.90;;;;;;5088284;28;20040;-61
2022/03/06 04:29:21;;;;;;;9.05;5.55;;;1.80;99.90;;;;;;5073291;28;20055;-60
2022/03/06 04:31:47;;;;;;;7.38;4.45;;;1.70;99.90;;;;;;5073111;28;20102;-60
2022/03/06 04:34:16;;;;;;;8.55;5.35;;;1.80;99.90;;;;;;5077868;28;20035;-61
2022/03/06 04:36:42;;;;;;;6.93;4.88;;;1.70;99.90;;;;;;5093171;28;20031;-61
2022/03/06 04:39:07;;;;;;;6.43;4.45;;;1.70;99.90;;;;;;5093181;28;20042;-61
2022/03/06 04:41:33;;;;;;;7.05;4.35;;;1.60;99.90;;;;;;5092914;28;20504;-61
2022/03/06 04:43:59;;;;;;;10.45;5.35;;;1.60;99.90;;;;;;5093089;28;20039;-61
2022/03/06 04:46:25;;;;;;;9.63;5.05;;;1.60;99.90;;;;;;5093232;28;20127;-61
2022/03/06 04:48:51;;;;;;;8.40;5.25;;;1.50;99.90;;;;;;5092779;28;20119;-61
2022/03/06 04:51:17;;;;;;;9.32;5.18;;;1.50;99.90;;;;;;5093047;28;20032;-61
2022/03/06 04:53:43;;;;;;;9.07;4.63;;;1.50;99.90;;;;;;5093044;28;20550;-60
2022/03/06 04:56:09;;;;;;;8.43;4.78;;;1.40;99.90;;;;;;5092974;28;20040;-61
2022/03/06 04:58:35;;;;;;;11.57;5.28;;;1.50;99.90;;;;;;5093179;28;20091;-61
2022/03/06 05:01:02;;;;;;;5.63;3.80;;;1.20;99.90;;;;;;5092977;28;20473;-60
2022/03/06 05:03:29;;;;;;;7.32;5.25;;;1.30;99.90;;;;;;5092730;28;20150;-61
2022/03/06 05:05:54;;;;;;;6.60;4.20;;;1.30;99.90;;;;;;5092676;28;20120;-61
2022/03/06 05:08:20;;;;;;;9.85;4.57;;;1.30;99.90;;;;;;5092513;28;20047;-61
2022/03/06 05:10:46;;;;;;;8.25;4.70;;;1.30;99.90;;;;;;5092826;28;20036;-61
2022/03/06 05:13:11;;;;;;;7.35;4.38;;;1.30;99.90;;;;;;5092479;28;20040;-61
2022/03/06 05:15:37;;;;;;;7.97;4.53;;;1.30;99.90;;;;;;5092767;28;20050;-61
2022/03/06 05:18:03;;;;;;;7.90;4.10;;;1.30;99.90;;;;;;5092537;28;20039;-60
2022/03/06 05:20:29;;;;;;;7.60;4.20;;;1.20;99.90;;;;;;5092411;28;20040;-61
2022/03/06 05:22:55;;;;;;;8.38;4.05;;;1.20;99.90;;;;;;5092138;28;20074;-61
2022/03/06 05:25:20;;;;;;;6.20;4.30;;;1.20;99.90;;;;;;5092410;28;20036;-61
2022/03/06 05:27:46;;;;;;;8.85;4.05;;;1.20;99.90;;;;;;5092397;28;20502;-61
2022/03/06 05:30:13;;;;;;;8.95;3.95;;;1.10;99.90;;;;;;5092392;28;20039;-61
2022/03/06 05:32:39;;;;;;;9.77;4.20;;;1.20;99.90;;;;;;5092153;28;20054;-61
2022/03/06 05:35:06;;;;;;;5.47;3.50;;;1.10;99.90;;;;;;5090859;28;20028;-60
2022/03/06 05:37:31;;;;;;;10.88;4.13;;;1.20;99.90;;;;;;5092227;28;20492;-61
2022/03/06 05:39:57;;;;;;;6.63;3.92;;;1.20;99.90;;;;;;5092135;28;20036;-61
2022/03/06 05:42:22;;;;;;;11.82;3.90;;;1.10;99.90;;;;;;5092012;28;20367;-61
2022/03/06 05:44:48;;;;;;;6.18;3.80;;;1.10;99.90;;;;;;5092096;28;20478;-61
2022/03/06 05:47:14;;;;;;;6.22;3.78;;;1.00;99.90;;;;;;5092254;28;20081;-61
2022/03/06 05:49:39;;;;;;;9.45;4.13;;;1.10;99.90;;;;;;5092096;28;20478;-61
2022/03/06 05:52:06;;;;;;;9.35;4.20;;;1.10;99.90;;;;;;5091947;28;20040;-61
2022/03/06 05:54:31;;;;;;;8.15;4.00;;;1.10;99.90;;;;;;5091910;28;20471;-61
2022/03/06 05:56:57;;;;;;;11.23;4.00;;;1.10;99.90;;;;;;5092100;28;20036;-61
2022/03/06 05:59:24;;;;;;;7.13;3.97;;;1.10;99.90;;;;;;5092303;28;20043;-61
2022/03/06 06:01:49;;;;;;;5.93;3.63;;;1.00;99.90;;;;;;5093446;28;20509;-61
2022/03/06 06:04:15;;;;;;;7.60;4.00;;;1.10;99.90;;;;;;5096195;28;20067;-60
2022/03/06 06:06:41;;;;;;;6.95;3.90;;;1.10;99.90;;;;;;5096066;28;20038;-61
2022/03/06 06:09:07;;;;;;;6.25;3.45;;;1.00;99.90;;;;;;5096149;28;20064;-61
2022/03/06 06:11:33;;;;;;;7.75;3.80;;;1.00;99.90;;;;;;5094782;28;20036;-61
2022/03/06 06:13:59;;;;;;;7.85;3.97;;;1.00;99.90;;;;;;5096111;28;20367;-61
2022/03/06 06:16:25;;;;;;;11.32;4.32;;;1.00;99.90;;;;;;5096010;28;20390;-61
2022/03/06 06:18:50;;;;;;;9.60;4.18;;;1.00;99.90;;;;;;5095975;28;20115;-61
2022/03/06 06:21:18;;;;;;;7.18;3.97;;;0.90;99.90;;;;;;5094601;28;20526;-60
2022/03/06 06:23:45;;;;;;;7.30;3.75;;;0.90;99.90;;;;;;5095603;28;20055;-60
2022/03/06 06:26:11;;;;;;;5.88;3.92;;;0.90;99.90;;;;;;5095661;28;20081;-61
2022/03/06 06:28:37;;;;;;;8.15;4.35;;;0.90;99.90;;;;;;5095610;28;20097;-61
2022/03/06 06:31:03;;;;;;;7.10;3.92;;;0.90;99.90;;;;;;5095747;28;20071;-61
2022/03/06 06:33:28;;;;;;;9.10;3.90;;;0.90;99.90;;;;;;5095689;28;20072;-61
2022/03/06 06:35:55;;;;;;;4.95;3.45;;;0.90;99.90;;;;;;5095579;28;20121;-61
2022/03/06 06:38:23;;;;;;;7.47;3.10;;;0.80;99.90;;;;;;5095941;28;20052;-61
2022/03/06 06:40:50;;;;;;;6.07;3.28;;;0.90;99.90;;;;;;5095498;28;20044;-60
2022/03/06 06:43:17;;;;;;;5.38;2.97;;;0.90;99.90;;;;;;5095300;28;20119;-60
2022/03/06 06:45:42;;;;;;;4.65;3.03;;;0.90;99.90;;;;;;5095517;28;20040;-61
2022/03/06 06:48:08;;;;;;;5.25;2.90;;;1.10;99.90;;;;;;5077369;28;20044;-61
2022/03/06 06:50:34;;;;;;;4.68;2.95;;;1.10;99.90;;;;;;5075107;28;20140;-61
2022/03/06 06:53:00;;;;;;;5.78;2.78;;;1.20;99.90;;;;;;5074846;28;20044;-60
2022/03/06 06:55:26;;;;;;;5.97;2.90;;;1.20;99.90;;;;;;5074927;28;20050;-60
2022/03/06 06:57:51;;;;;;;4.32;2.25;;;1.30;99.90;;;;;;5075009;28;20111;-61
2022/03/06 07:00:17;;;;;;;6.03;2.92;;;1.40;99.90;;;;;;5074755;28;20429;-61
2022/03/06 07:02:43;;;;;;;6.25;2.10;;;1.40;99.90;;;;;;5074652;28;20086;-61
2022/03/06 07:05:09;;;;;;;3.90;2.60;;;1.50;99.90;;;;;;5074731;28;20036;-61
2022/03/06 07:07:35;;;;;;;7.53;2.33;;;1.60;99.90;;;;;;5074581;28;20482;-61
2022/03/06 07:10:03;;;;;;;4.85;1.80;;;1.60;99.90;;;;;;5074514;28;20470;-61
2022/03/06 07:12:28;;;;;;;4.45;2.22;;;1.80;99.90;;;;;;5074728;28;20032;-60
2022/03/06 07:14:54;;;;;;;4.10;2.22;;;1.80;99.90;;;;;;5074525;28;20491;-61
2022/03/06 07:17:20;;;;;;;3.90;2.03;;;1.90;99.90;;;;;;5074506;28;20048;-60
2022/03/06 07:19:45;;;;;;;7.40;2.22;;;2.00;99.90;;;;;;5074797;28;20045;-61
2022/03/06 07:22:11;;;;;;;3.55;2.15;;;2.10;99.90;;;;;;5074406;28;20037;-60
2022/03/06 07:24:37;;;;;;;2.75;1.98;;;2.20;99.90;;;;;;5074044;28;20048;-61
2022/03/06 07:27:03;;;;;;;4.50;2.28;;;2.30;99.90;;;;;;5074202;28;20395;-60
2022/03/06 07:29:28;;;;;;;4.03;2.30;;;2.40;99.90;;;;;;5074431;28;20040;-60
2022/03/06 07:31:54;;;;;;;5.18;2.10;;;2.50;99.90;;;;;;5074383;28;20547;-60
2022/03/06 07:34:19;;;;;;;2.83;2.05;;;2.70;99.90;;;;;;5081977;28;20044;-60
2022/03/06 07:36:45;;;;;;;5.53;2.10;;;2.80;99.90;;;;;;5094773;28;20044;-60
2022/03/06 07:39:11;;;;;;;4.22;2.25;;;3.00;99.90;;;;;;5085606;28;20101;-61
2022/03/06 07:41:36;;;;;;;5.53;1.83;;;3.20;99.90;;;;;;5109614;28;20043;-61
2022/03/06 07:44:02;;;;;;;3.22;2.10;;;3.50;99.90;;;;;;5094240;28;20421;-60
2022/03/06 07:46:28;;;;;;;3.80;2.08;;;3.80;99.90;;;;;;5094288;28;20040;-59
2022/03/06 07:48:53;;;;;;;4.72;2.30;;;4.20;99.90;;;;;;5093905;28;20047;-61
2022/03/06 07:51:19;;;;;;;2.45;1.55;;;4.50;99.90;;;;;;5094199;28;20119;-60
2022/03/06 07:53:45;;;;;;;3.92;1.63;;;4.50;99.90;;;;;;5109686;28;20123;-60
2022/03/06 07:56:11;;;;;;;3.80;2.20;;;4.90;99.90;;;;;;5092421;28;20080;-60
2022/03/06 07:58:36;;;;;;;4.63;1.70;;;5.10;99.90;;;;;;5093900;28;20085;-60
2022/03/06 08:01:02;;;;;;;4.00;1.92;;;5.30;99.90;;;;;;5093735;28;20039;-60
2022/03/06 08:03:28;;;;;;;4.88;1.77;;;5.70;99.90;;;;;;5092094;28;20048;-61
2022/03/06 08:05:54;;;;;;;4.30;1.85;;;5.80;99.90;;;;;;5093730;28;20393;-60
2022/03/06 08:08:19;;;;;;;2.60;1.67;;;6.00;99.90;;;;;;5093706;28;20047;-61
2022/03/06 08:10:45;;;;;;;4.63;1.77;;;6.50;99.90;;;;;;5093673;28;20058;-61
2022/03/06 08:13:10;;;;;;;3.47;2.33;;;6.50;99.90;;;;;;5093767;28;20445;-61
2022/03/06 08:15:36;;;;;;;1.95;1.48;;;6.50;99.90;;;;;;5093549;28;20075;-60
2022/03/06 08:18:02;;;;;;;3.70;1.88;;;6.80;99.90;;;;;;5093283;28;20068;-60
2022/03/06 08:20:28;;;;;;;3.90;2.42;;;7.00;99.90;;;;;;5093524;28;20474;-60
2022/03/06 08:22:54;;;;;;;4.72;1.90;;;7.10;99.90;;;;;;5108939;28;20135;-60
2022/03/06 08:25:20;;;;;;;3.03;1.83;;;7.30;99.90;;;;;;5092647;28;20120;-61
2022/03/06 08:27:46;;;;;;;2.35;1.75;;;7.50;99.90;;;;;;5093279;28;20047;-60
2022/03/06 08:30:13;;;;;;;4.78;2.40;;;7.70;99.90;;;;;;5093227;28;20040;-60
2022/03/06 08:32:39;;;;;;;5.68;2.20;;;7.80;99.90;;;;;;5093069;28;20040;-60
2022/03/06 08:35:06;;;;;;;5.85;2.45;;;7.90;99.90;;;;;;5093344;28;20040;-60
2022/03/06 08:37:32;;;;;;;4.65;2.13;;;8.10;99.90;;;;;;5093247;28;20040;-60
2022/03/06 08:39:58;;;;;;;4.22;1.80;;;8.20;99.80;;;;;;5093075;28;20070;-60
2022/03/06 08:42:24;;;;;;;2.88;1.88;;;8.50;99.30;;;;;;5092905;28;20063;-60
2022/03/06 08:44:49;;;;;;;4.88;2.03;;;8.50;98.60;;;;;;5092945;28;20144;-60
2022/03/06 08:47:15;;;;;;;3.60;1.67;;;8.60;99.10;;;;;;5092668;28;20043;-60
2022/03/06 08:49:41;;;;;;;3.17;1.70;;;9.00;97.20;;;;;;5093112;28;20090;-61
2022/03/06 08:52:07;;;;;;;4.03;1.60;;;8.80;98.20;;;;;;5092960;28;20067;-60
2022/03/06 08:54:33;;;;;;;3.67;2.00;;;8.70;96.80;;;;;;5092706;28;20051;-60
2022/03/06 08:56:59;;;;;;;2.35;1.48;;;8.60;96.50;;;;;;5092685;28;20040;-60
2022/03/06 08:59:25;;;;;;;4.68;1.90;;;8.50;96.20;;;;;;5091505;28;20135;-60
2022/03/06 09:01:55;;;;;;;3.25;1.85;;;8.70;97.20;;;;;;5092653;28;20043;-60
2022/03/06 09:04:22;;;;;;;4.05;1.95;;;9.00;98.00;;;;;;5092655;28;20107;-60
2022/03/06 09:06:48;;;;;;;4.25;1.77;;;8.60;95.60;;;;;;5092484;28;20101;-59
2022/03/06 09:09:14;;;;;;;2.70;1.52;;;8.70;96.80;;;;;;5092565;28;20111;-60
2022/03/06 09:11:40;;;;;;;3.40;1.40;;;9.20;97.50;;;;;;5092402;28;20438;-60
2022/03/06 09:14:05;;;;;;;3.92;2.20;;;9.10;96.10;;;;;;5092533;28;20047;-60
2022/03/06 09:16:31;;;;;;;2.75;1.80;;;9.10;96.70;;;;;;5092263;28;20050;-60
2022/03/06 09:18:57;;;;;;;4.28;1.63;;;8.70;95.60;;;;;;5087738;28;20044;-60
2022/03/06 09:21:22;;;;;;;4.07;1.60;;;8.90;95.80;;;;;;5072226;28;20037;-60
2022/03/06 09:23:48;;;;;;;2.67;1.77;;;9.00;96.80;;;;;;5072098;28;20049;-60
2022/03/06 09:26:13;;;;;;;4.45;1.98;;;9.10;96.40;;;;;;5072044;28;20040;-60
2022/03/06 09:28:39;;;;;;;4.85;1.60;;;8.80;95.70;;;;;;5072208;28;20508;-59
2022/03/06 09:31:05;;;;;;;5.50;1.80;;;9.00;96.90;;;;;;5071919;28;20036;-59
2022/03/06 09:33:31;;;;;;;4.72;1.95;;;8.60;96.90;;;;;;5072229;28;20536;-60
2022/03/06 09:35:56;;;;;;;3.92;1.75;;;8.70;96.90;;;;;;5071288;28;20044;-60
2022/03/06 09:38:23;;;;;;;3.22;1.90;;;8.80;97.50;;;;;;5072079;28;20047;-60
2022/03/06 09:40:50;;;;;;;3.38;1.80;;;8.70;97.50;;;;;;5072022;28;20115;-59
2022/03/06 09:43:18;;;;;;;3.33;2.20;;;9.00;97.70;;;;;;5071929;28;20036;-59
2022/03/06 09:45:45;;;;;;;3.78;1.95;;;9.00;97.10;;;;;;5071868;28;20036;-60
2022/03/06 09:48:12;;;;;;;4.90;1.85;;;8.90;97.40;;;;;;5072198;28;20036;-60
2022/03/06 09:50:38;;;;;;;5.30;2.42;;;8.60;97.00;;;;;;5073001;28;20068;-59
2022/03/06 09:53:04;;;;;;;4.55;2.20;;;8.90;97.90;;;;;;5083313;28;20085;-59
2022/03/06 09:55:30;;;;;;;4.55;2.40;;;9.00;98.00;;;;;;5074105;28;20141;-59
2022/03/06 09:57:57;;;;;;;2.70;1.80;;;8.60;97.60;;;;;;5072131;28;20052;-59
2022/03/06 10:00:23;;;;;;;5.47;2.13;;;8.70;97.70;;;;;;5079545;28;20036;-60
2022/03/06 10:03:01;;;;;;;7.63;2.65;;;8.80;98.50;;;;;;5079751;28;20043;-60
2022/03/06 10:05:33;;;;;;;4.50;2.03;;;9.00;97.30;;;;;;5083601;28;20074;-60
2022/03/06 10:08:19;;;;;;;8.32;2.55;;;9.00;98.20;;;;;;5092115;28;20032;-60
2022/03/06 10:10:46;;;;;;;4.03;2.08;;;9.00;97.80;;;;;;5079300;28;20032;-60
2022/03/06 10:13:32;;;;;;;3.63;2.10;;;9.30;98.00;;;;;;5091629;28;20044;-59
2022/03/06 10:15:58;;;;;;;3.20;2.00;;;9.40;97.90;;;;;;5072810;28;20048;-59
2022/03/06 10:18:23;;;;;;;4.60;2.50;;;9.40;96.30;;;;;;5071334;28;20474;-60
2022/03/06 10:20:49;;;;;;;4.43;2.00;;;9.50;95.50;;;;;;5071564;28;20540;-61
2022/03/06 10:23:26;;;;;;;3.53;2.08;;;9.50;97.90;;;;;;5071185;28;20440;-61
2022/03/06 10:26:12;;;;;;;5.07;2.65;;;9.60;97.60;;;;;;5071842;28;20533;-61
2022/03/06 10:28:49;;;;;;;6.75;2.10;;;9.80;95.90;;;;;;5072045;28;20091;-59
2022/03/06 10:31:15;;;;;;;5.63;2.03;;;9.60;96.40;;;;;;5071456;28;20055;-59
2022/03/06 10:33:59;;;;;;;4.05;1.95;;;9.80;97.20;;;;;;5071794;28;20048;-59
2022/03/06 10:36:33;;;;;;;6.00;2.10;;;9.60;97.90;;;;;;5071563;28;20047;-60
2022/03/06 10:38:59;;;;;;;5.78;2.30;;;9.80;97.40;;;;;;5071387;28;20528;-60
2022/03/06 10:41:43;;;;;;;5.47;2.40;;;10.00;98.00;;;;;;5071500;28;20123;-60
2022/03/06 10:44:11;;;;;;;4.15;2.40;;;9.80;98.20;;;;;;5071157;28;20051;-60
2022/03/06 10:46:37;;;;;;;3.25;2.13;;;9.90;98.50;;;;;;5071560;28;20037;-60
2022/03/06 10:49:12;;;;;;;4.68;2.58;;;9.70;98.40;;;;;;5079793;28;20032;-60
2022/03/06 10:51:47;;;;;;;2.97;1.85;;;9.70;97.70;;;;;;5095309;28;20044;-60
2022/03/06 10:54:14;;;;;;;5.22;2.00;;;9.70;98.70;;;;;;5079528;28;20125;-60
2022/03/06 10:56:43;;;;;;;6.30;2.50;;;9.80;99.30;;;;;;5087268;28;20049;-59
2022/03/06 10:59:10;;;;;;;4.60;2.10;;;10.00;99.20;;;;;;5089186;28;20044;-60
2022/03/06 11:01:38;;;;;;;5.07;2.65;;;10.00;98.60;;;;;;5074856;28;20079;-60
2022/03/06 11:04:06;;;;;;;3.47;2.20;;;9.80;98.90;;;;;;5074461;28;20040;-59
2022/03/06 11:06:41;;;;;;;4.78;2.30;;;10.10;98.90;;;;;;5075710;28;20063;-59
2022/03/06 11:09:15;;;;;;;4.60;2.40;;;10.10;98.80;;;;;;5072199;28;20155;-61
2022/03/06 11:11:43;;;;;;;3.72;2.35;;;9.90;99.00;;;;;;5092761;28;20052;-61
2022/03/06 11:14:09;;;;;;;4.82;2.78;;;10.00;99.90;;;;;;5079955;28;20405;-60
2022/03/06 11:16:36;;;;;;;3.53;2.33;;;10.00;98.40;;;;;;5073549;28;20092;-61
2022/03/06 11:19:04;;;;;;;3.55;1.90;;;9.90;99.20;;;;;;5074333;28;20063;-60
2022/03/06 11:21:33;;;;;;;3.10;2.42;;;9.90;99.40;;;;;;5079178;28;20526;-60
2022/03/06 11:23:59;;;;;;;;;;;10.30;99.90;;;;;;5074483;28;20123;-59
2022/03/06 11:26:37;;;;;;;5.75;2.00;;;10.10;99.10;;;;;;5076084;28;19916;-59
2022/03/06 11:29:22;;;;;;;7.55;2.42;;;10.20;99.90;;;;;;5074354;28;20043;-59
2022/03/06 11:31:53;;;;;;;3.28;2.55;;;10.20;99.20;;;;;;5082598;28;20036;-60
2022/03/06 11:34:23;;;;;;;5.55;2.58;;;9.80;98.80;;;;;;5076353;28;20048;-61
2022/03/06 11:36:50;;;;;;;4.03;2.22;;;9.90;99.90;;;;;;5075006;28;20036;-61
2022/03/06 11:39:35;;;;;;;7.32;2.30;;;9.80;99.90;;;;;;5074241;28;20479;-61
2022/03/06 11:42:05;;;;;;;4.07;2.00;;;10.00;99.90;;;;;;5074105;28;20059;-61
2022/03/06 11:44:36;;;;;;;7.50;2.35;;;9.80;99.90;;;;;;5074293;28;20064;-61
2022/03/06 11:47:24;;;;;;;5.05;2.33;;;9.50;99.90;;;;;;5074397;28;20087;-61
2022/03/06 11:49:54;;;;;;;4.03;2.17;;;9.40;99.90;;;;;;5074266;28;20152;-61
2022/03/06 11:52:27;;;;;;;3.20;2.08;;;9.40;99.90;;;;;;5075188;28;20110;-61
2022/03/06 11:54:54;;;;;;;5.25;2.58;;;9.40;99.90;;;;;;5073790;28;20044;-61
2022/03/06 11:57:40;;;;;;;4.78;2.50;;;9.50;99.90;;;;;;5073829;28;20040;-62
2022/03/06 12:00:18;;;;;;;4.38;2.53;;;9.20;99.90;;;;;;5072568;28;20037;-60
2022/03/06 12:02:52;;;;;;;7.20;2.53;;;9.10;99.90;;;;;;5073713;28;20087;-61
2022/03/06 12:05:20;;;;;;;5.57;2.45;;;9.30;99.90;;;;;;5087706;28;20062;-61
2022/03/06 12:07:47;;;;;;;6.18;2.50;;;9.20;99.90;;;;;;5094136;28;20119;-60
2022/03/06 12:10:15;;;;;;;4.32;2.40;;;9.30;99.90;;;;;;5093870;28;20044;-61
2022/03/06 12:12:41;;;;;;;6.85;2.28;;;9.10;99.90;;;;;;5088263;28;20051;-61
2022/03/06 12:15:23;;;;;;;3.72;2.08;;;9.00;99.90;;;;;;5073558;28;20097;-61
2022/03/06 12:17:49;;;;;;;2.92;2.00;;;9.10;99.90;;;;;;5073537;28;20194;-61
2022/03/06 12:20:24;;;;;;;4.75;2.22;;;8.80;99.90;;;;;;5073656;28;20457;-59
2022/03/06 12:22:54;;;;;;;5.07;2.30;;;8.60;99.90;;;;;;5070965;28;20061;-59
2022/03/06 12:25:25;;;;;;;3.63;2.40;;;8.50;99.90;;;;;;5073458;28;20084;-60
2022/03/06 12:28:02;;;;;;;4.25;2.60;;;8.50;99.90;;;;;;5073269;28;20040;-60
2022/03/06 12:30:34;;;;;;;4.72;2.05;;;8.50;99.90;;;;;;5072997;28;20498;-60
2022/03/06 12:33:26;;;;;;;5.82;2.50;;;8.40;99.90;;;;;;5072988;28;20158;-60
2022/03/06 12:36:33;;;;;;;5.90;1.92;;;8.50;99.90;;;;;;5011171;28;20184;-60
2022/03/06 12:39:03;;;;;;;3.30;2.00;;;8.60;99.90;;;;;;5008772;28;20070;-60
2022/03/06 12:41:29;;;;;;;4.95;2.25;;;8.80;99.90;;;;;;4978737;28;20062;-59
2022/03/06 12:44:06;;;;;;;7.00;2.92;;;8.80;99.90;;;;;;5010769;28;20507;-59
2022/03/06 12:46:33;;;;;;;4.85;2.65;;;8.60;99.90;;;;;;4994528;28;20156;-60
2022/03/06 12:49:00;;;;;;;4.22;2.35;;;8.70;99.90;;;;;;5011430;28;20085;-59
2022/03/06 12:51:27;;;;;;;5.47;2.42;;;8.60;99.90;;;;;;5011132;28;20033;-60
2022/03/06 12:53:53;;;;;;;4.80;2.35;;;8.60;99.90;;;;;;5011212;28;20054;-60
2022/03/06 12:56:35;;;;;;;3.15;2.08;;;8.60;99.90;;;;;;5011069;28;20045;-60